Barclay, Texas
Current Conditions -  °F | °C
As of 2:35 PM on Monday 26 Jan 2015 (Local Time) from KTPL Reporting Station
Clear Clear  
Wind Chill: 72°   Ceiling: Unl
Heat Index: 72°   Visibility: 10mi
Dew Point: 36°   Wind: 14mph
Humidity: 27%   Direction: 260°W
Pressure: 30.14"   Gusts: 18mph
Location:  31.1912°N, 97.0719°W
Report Text: KTPL 262035Z AUTO 26012G16KT 10SM CLR 22/02 A3014 RMK AO1
Loading
Personal Weather Stations






























Interactive Weather Map New forecast layout! Learn more

10-Day Weather Forecast

Advertisements
Track Severe Weather on mobile